createdAt,value
2023-05-14T00:00:56.763Z,98.93
2023-05-14T00:03:25.556Z,99.13
2023-05-14T00:05:54.238Z,99.24
2023-05-14T00:08:22.810Z,99.28
2023-05-14T00:10:51.691Z,99.24
2023-05-14T00:13:20.316Z,99.59
2023-05-14T00:15:50.315Z,99.95
2023-05-14T00:18:19.060Z,100.00
2023-05-14T00:20:47.674Z,100.00
2023-05-14T00:23:16.234Z,100.00
2023-05-14T00:25:44.886Z,100.00
2023-05-14T00:28:13.522Z,100.00
2023-05-14T00:30:42.266Z,100.00
2023-05-14T00:33:12.221Z,100.00
2023-05-14T00:35:40.839Z,100.00
2023-05-14T00:38:09.437Z,100.00
2023-05-14T00:40:38.123Z,100.00
2023-05-14T00:43:06.706Z,100.00
2023-05-14T00:45:35.483Z,100.00
2023-05-14T00:48:04.819Z,100.00
2023-05-14T00:50:35.563Z,99.99
2023-05-14T00:53:04.184Z,100.00
2023-05-14T00:55:33.525Z,100.00
2023-05-14T00:58:02.505Z,100.00
2023-05-14T01:00:31.167Z,100.00
2023-05-14T01:03:01.444Z,100.00
2023-05-14T01:05:37.760Z,100.00
2023-05-14T01:08:12.558Z,100.00
2023-05-14T01:10:47.223Z,100.00
2023-05-14T01:13:21.014Z,100.00
2023-05-14T01:15:50.498Z,100.00
2023-05-14T01:18:20.108Z,100.00
2023-05-14T01:20:52.095Z,99.75
2023-05-14T01:23:22.080Z,100.00
2023-05-14T01:25:50.701Z,100.00
2023-05-14T01:28:20.801Z,100.00
2023-05-14T01:30:54.584Z,100.00
2023-05-14T01:33:23.628Z,100.00
2023-05-14T01:35:53.633Z,100.00
2023-05-14T01:38:24.302Z,100.00
2023-05-14T01:40:53.597Z,100.00
2023-05-14T01:43:22.426Z,100.00
2023-05-14T01:45:51.229Z,100.00
2023-05-14T01:48:19.904Z,100.00
2023-05-14T01:50:48.633Z,100.00
2023-05-14T01:53:17.234Z,100.00
2023-05-14T01:55:47.226Z,100.00
2023-05-14T01:58:15.838Z,100.00
2023-05-14T02:00:44.438Z,100.00
2023-05-14T02:03:13.180Z,100.00
2023-05-14T02:05:41.819Z,100.00
2023-05-14T02:08:10.525Z,100.00
2023-05-14T02:10:39.102Z,100.00
2023-05-14T02:13:09.610Z,100.00
2023-05-14T02:15:38.265Z,100.00
2023-05-14T02:18:07.356Z,100.00
2023-05-14T02:20:36.065Z,100.00
2023-05-14T02:23:04.722Z,100.00
2023-05-14T02:25:33.415Z,100.00
2023-05-14T02:28:03.092Z,100.00
2023-05-14T02:30:33.088Z,100.00
2023-05-14T02:33:01.763Z,100.00
2023-05-14T02:35:30.449Z,100.00
2023-05-14T02:37:59.569Z,100.00
2023-05-14T02:40:28.257Z,100.00
2023-05-14T02:42:56.886Z,100.00
2023-05-14T02:45:25.599Z,100.00
2023-05-14T02:47:55.541Z,100.00
2023-05-14T02:50:24.640Z,100.00
2023-05-14T02:52:53.494Z,100.00
2023-05-14T02:55:22.746Z,100.00
2023-05-14T02:57:53.165Z,100.00
2023-05-14T03:00:22.464Z,100.00
2023-05-14T03:02:51.666Z,100.00
2023-05-14T03:05:21.996Z,100.00
2023-05-14T03:07:51.691Z,100.00
2023-05-14T03:10:20.306Z,100.00
2023-05-14T03:12:49.364Z,100.00
2023-05-14T03:15:18.182Z,100.00
2023-05-14T03:17:46.849Z,100.00
2023-05-14T03:20:15.619Z,100.00
2023-05-14T03:22:45.667Z,100.00
2023-05-14T03:25:14.241Z,100.00
2023-05-14T03:27:42.855Z,100.00
2023-05-14T03:30:12.549Z,100.00
2023-05-14T03:32:41.371Z,100.00
2023-05-14T03:35:10.388Z,100.00
2023-05-14T03:37:39.003Z,100.00
2023-05-14T03:40:10.138Z,100.00
2023-05-14T03:42:38.757Z,100.00
2023-05-14T03:45:09.069Z,100.00
2023-05-14T03:47:37.942Z,100.00
2023-05-14T03:50:07.826Z,100.00
2023-05-14T03:52:36.716Z,100.00
2023-05-14T03:55:05.825Z,100.00
2023-05-14T03:57:36.647Z,100.00
2023-05-14T04:00:05.807Z,100.00
2023-05-14T04:02:34.515Z,100.00
2023-05-14T04:05:03.139Z,100.00
2023-05-14T04:07:31.710Z,100.00
2023-05-14T04:10:03.452Z,100.00
2023-05-14T04:12:33.174Z,100.00
2023-05-14T04:15:03.087Z,100.00
2023-05-14T04:17:31.690Z,100.00
2023-05-14T04:20:00.335Z,100.00
2023-05-14T04:22:29.007Z,100.00
2023-05-14T04:24:57.659Z,100.00
2023-05-14T04:27:26.298Z,100.00
2023-05-14T04:29:54.961Z,100.00
2023-05-14T04:32:24.923Z,100.00
2023-05-14T04:34:53.557Z,100.00
2023-05-14T04:37:22.136Z,100.00
2023-05-14T04:39:50.798Z,100.00
2023-05-14T04:42:19.452Z,100.00
2023-05-14T04:44:48.064Z,100.00
2023-05-14T04:47:16.761Z,100.00
2023-05-14T04:49:46.726Z,100.00
2023-05-14T04:52:15.364Z,100.00
2023-05-14T04:54:44.011Z,100.00
2023-05-14T04:57:12.733Z,100.00
2023-05-14T04:59:41.393Z,100.00
2023-05-14T05:02:10.022Z,100.00
2023-05-14T05:04:39.990Z,100.00
2023-05-14T05:07:09.929Z,100.00
2023-05-14T05:09:38.512Z,99.44
2023-05-14T05:12:08.178Z,99.85
2023-05-14T05:14:36.754Z,99.35
2023-05-14T05:17:05.721Z,99.14
2023-05-14T05:19:43.259Z,99.98
2023-05-14T05:22:13.922Z,99.15
2023-05-14T05:24:42.510Z,99.92
2023-05-14T05:27:11.093Z,99.58
2023-05-14T05:29:39.899Z,100.00
2023-05-14T05:32:08.934Z,99.42
2023-05-14T05:34:37.594Z,99.46
2023-05-14T05:37:06.255Z,99.60
2023-05-14T05:39:36.336Z,98.81
2023-05-14T05:42:06.703Z,99.02
2023-05-14T05:44:35.534Z,99.43
2023-05-14T05:47:04.502Z,99.17
2023-05-14T05:49:33.334Z,98.65
2023-05-14T05:52:02.112Z,99.38
2023-05-14T05:54:32.645Z,98.97
2023-05-14T05:57:02.589Z,99.18
2023-05-14T05:59:31.203Z,98.96
2023-05-14T06:02:00.018Z,100.00
2023-05-14T06:04:28.733Z,100.00
2023-05-14T06:06:57.380Z,99.25
2023-05-14T06:09:26.092Z,99.26
2023-05-14T06:11:54.688Z,98.71
2023-05-14T06:14:25.182Z,98.40
2023-05-14T06:16:54.008Z,98.38
2023-05-14T06:19:23.080Z,98.33
2023-05-14T06:21:51.679Z,98.89
2023-05-14T06:24:21.262Z,98.46
2023-05-14T06:26:49.859Z,100.00
2023-05-14T06:29:18.461Z,98.73
2023-05-14T06:31:48.520Z,98.78
2023-05-14T06:34:17.155Z,98.83
2023-05-14T06:36:45.785Z,98.79
2023-05-14T06:39:14.431Z,98.58
2023-05-14T06:41:43.197Z,98.56
2023-05-14T06:44:11.945Z,97.61
2023-05-14T06:46:40.523Z,96.93
2023-05-14T06:49:10.567Z,95.79
2023-05-14T06:51:40.679Z,95.93
2023-05-14T06:54:09.285Z,94.53
2023-05-14T06:56:37.909Z,94.21
2023-05-14T06:59:06.699Z,93.98
2023-05-14T07:01:36.221Z,94.17
2023-05-14T07:04:05.134Z,94.16
2023-05-14T07:06:35.130Z,93.59
2023-05-14T07:09:04.240Z,93.98
2023-05-14T07:11:33.382Z,93.26
2023-05-14T07:14:01.994Z,93.44
2023-05-14T07:16:30.651Z,93.07
2023-05-14T07:18:59.331Z,92.65
2023-05-14T07:21:27.932Z,92.05
2023-05-14T07:23:57.875Z,93.22
2023-05-14T07:26:26.505Z,92.92
2023-05-14T07:28:55.196Z,92.66
2023-05-14T07:31:23.892Z,93.05
2023-05-14T07:33:52.594Z,93.87
2023-05-14T07:36:21.320Z,92.13
2023-05-14T07:38:49.976Z,92.49
2023-05-14T07:41:19.869Z,92.38
2023-05-14T07:43:48.492Z,91.83
2023-05-14T07:46:17.470Z,91.27
2023-05-14T07:48:46.121Z,91.11
2023-05-14T07:51:14.778Z,91.55
2023-05-14T07:53:43.410Z,90.77
2023-05-14T07:56:12.020Z,89.99
2023-05-14T07:58:42.143Z,89.23
2023-05-14T08:01:10.782Z,88.31
2023-05-14T08:03:39.511Z,88.61
2023-05-14T08:06:08.242Z,89.30
2023-05-14T08:08:36.900Z,88.42
2023-05-14T08:11:05.787Z,88.60
2023-05-14T08:13:34.442Z,87.53
2023-05-14T08:16:04.593Z,87.31
2023-05-14T08:18:33.346Z,87.37
2023-05-14T08:21:03.479Z,86.30
2023-05-14T08:23:32.393Z,84.39
2023-05-14T08:26:01.284Z,83.86
2023-05-14T08:28:29.881Z,81.47
2023-05-14T08:30:58.563Z,81.97
2023-05-14T08:33:28.607Z,79.17
2023-05-14T08:35:58.285Z,79.78
2023-05-14T08:38:26.984Z,78.92
2023-05-14T08:40:58.050Z,77.82
2023-05-14T08:43:28.493Z,76.72
2023-05-14T08:45:59.473Z,77.85
2023-05-14T08:48:31.509Z,77.55
2023-05-14T08:51:00.563Z,79.45
2023-05-14T08:53:29.215Z,80.53
2023-05-14T08:55:57.797Z,80.95
2023-05-14T08:58:28.592Z,81.38
2023-05-14T09:00:57.289Z,81.05
2023-05-14T09:03:26.418Z,80.80
2023-05-14T09:05:57.986Z,80.54
2023-05-14T09:08:28.591Z,80.48
2023-05-14T09:10:57.193Z,79.31
2023-05-14T09:13:28.078Z,78.68
2023-05-14T09:15:57.371Z,79.41
2023-05-14T09:18:26.192Z,75.89
2023-05-14T09:20:56.232Z,76.41
2023-05-14T09:23:26.748Z,75.74
2023-05-14T09:25:56.128Z,76.61
2023-05-14T09:28:27.938Z,77.57
2023-05-14T09:30:56.558Z,73.30
2023-05-14T09:33:28.899Z,74.97
2023-05-14T09:36:01.266Z,75.59
2023-05-14T09:38:30.846Z,77.28
2023-05-14T09:40:59.730Z,77.62
2023-05-14T09:43:28.334Z,76.10
2023-05-14T09:45:56.962Z,77.13
2023-05-14T09:48:26.384Z,77.84
2023-05-14T09:50:55.038Z,75.57
2023-05-14T09:53:25.050Z,76.99
2023-05-14T09:55:53.672Z,71.42
2023-05-14T09:58:22.409Z,71.83
2023-05-14T10:00:52.091Z,71.06
2023-05-14T10:03:21.422Z,73.28
2023-05-14T10:05:51.040Z,73.08
2023-05-14T10:08:23.657Z,74.49
2023-05-14T10:10:55.326Z,71.99
2023-05-14T10:13:25.406Z,72.52
2023-05-14T10:15:58.162Z,71.01
2023-05-14T10:18:28.919Z,70.59
2023-05-14T10:21:02.757Z,72.04
2023-05-14T10:23:31.510Z,71.91
2023-05-14T10:26:01.823Z,68.81
2023-05-14T10:28:30.792Z,68.73
2023-05-14T10:31:00.817Z,69.80
2023-05-14T10:33:29.747Z,67.67
2023-05-14T10:36:00.961Z,67.58
2023-05-14T10:38:30.089Z,71.67
2023-05-14T10:41:02.360Z,68.67
2023-05-14T10:43:31.838Z,68.65
2023-05-14T10:46:01.143Z,68.73
2023-05-14T10:48:30.043Z,67.71
2023-05-14T10:50:59.179Z,65.51
2023-05-14T10:53:35.629Z,65.26
2023-05-14T10:56:07.529Z,66.30
2023-05-14T10:58:37.835Z,65.56
2023-05-14T11:01:08.292Z,62.99
2023-05-14T11:03:41.831Z,63.74
2023-05-14T11:06:11.722Z,63.14
2023-05-14T11:08:41.538Z,65.36
2023-05-14T11:11:11.698Z,61.82
2023-05-14T11:13:40.346Z,60.14
2023-05-14T11:16:21.873Z,60.47
2023-05-14T11:18:55.784Z,58.92
2023-05-14T11:21:25.352Z,58.31
2023-05-14T11:23:55.782Z,56.98
2023-05-14T11:26:26.465Z,60.54
2023-05-14T11:28:55.154Z,57.33
2023-05-14T11:31:24.285Z,55.41
2023-05-14T11:33:53.222Z,56.47
2023-05-14T11:36:21.907Z,56.15
2023-05-14T11:38:52.189Z,58.81
2023-05-14T11:41:22.891Z,59.47
2023-05-14T11:43:53.002Z,58.92
2023-05-14T11:46:21.696Z,55.87
2023-05-14T11:48:50.493Z,57.49
2023-05-14T11:51:19.190Z,58.07
2023-05-14T11:53:48.038Z,55.59
2023-05-14T11:56:16.662Z,57.68
2023-05-14T11:58:49.297Z,56.49
2023-05-14T12:01:19.521Z,55.49
2023-05-14T12:03:48.421Z,58.84
2023-05-14T12:06:17.160Z,59.86
2023-05-14T12:08:45.819Z,55.92
2023-05-14T12:11:14.414Z,52.84
2023-05-14T12:13:43.051Z,53.08
2023-05-14T12:16:11.692Z,52.01
2023-05-14T12:18:41.839Z,50.13
2023-05-14T12:21:11.986Z,50.88
2023-05-14T12:23:40.626Z,50.32
2023-05-14T12:26:10.145Z,52.54
2023-05-14T12:28:43.165Z,50.94
2023-05-14T12:31:12.276Z,53.14
2023-05-14T12:33:42.325Z,52.92
2023-05-14T12:36:21.100Z,49.94
2023-05-14T12:38:51.294Z,50.81
2023-05-14T12:41:19.874Z,50.71
2023-05-14T12:43:49.252Z,52.12
2023-05-14T12:46:18.071Z,53.96
2023-05-14T12:48:48.089Z,49.99
2023-05-14T12:51:16.741Z,51.84
2023-05-14T12:53:45.427Z,52.07
2023-05-14T12:56:14.343Z,51.03
2023-05-14T12:58:42.985Z,52.09
2023-05-14T13:01:11.676Z,52.15
2023-05-14T13:03:40.306Z,51.12
2023-05-14T13:06:10.568Z,52.35
2023-05-14T13:08:40.509Z,53.16
2023-05-14T13:11:10.131Z,55.45
2023-05-14T13:13:38.795Z,57.34
2023-05-14T13:16:07.987Z,57.90
2023-05-14T13:18:36.607Z,56.83
2023-05-14T13:21:06.370Z,52.69
2023-05-14T13:23:36.349Z,52.82
2023-05-14T13:26:04.981Z,51.20
2023-05-14T13:28:33.638Z,51.67
2023-05-14T13:31:07.814Z,52.39
2023-05-14T13:33:37.377Z,52.70
2023-05-14T13:36:06.534Z,52.86
2023-05-14T13:38:37.085Z,51.89
2023-05-14T13:41:06.131Z,52.94
2023-05-14T13:43:35.860Z,52.98
2023-05-14T13:46:05.944Z,53.02
2023-05-14T13:48:35.892Z,51.57
2023-05-14T13:51:04.777Z,52.12
2023-05-14T13:53:33.418Z,51.75
2023-05-14T13:56:03.390Z,52.17
2023-05-14T13:58:32.079Z,53.01
2023-05-14T14:01:00.857Z,51.64
2023-05-14T14:03:29.509Z,51.92
2023-05-14T14:05:58.185Z,52.29
2023-05-14T14:08:26.899Z,50.75
2023-05-14T14:10:55.791Z,51.88
2023-05-14T14:13:26.003Z,51.69
2023-05-14T14:15:54.687Z,49.95
2023-05-14T14:18:23.325Z,49.59
2023-05-14T14:20:52.593Z,49.80
2023-05-14T14:23:21.255Z,51.35
2023-05-14T14:25:49.848Z,51.73
2023-05-14T14:28:18.931Z,53.26
2023-05-14T14:30:48.900Z,51.98
2023-05-14T14:33:17.588Z,52.90
2023-05-14T14:35:47.346Z,53.09
2023-05-14T14:38:15.962Z,53.61
2023-05-14T14:40:44.614Z,53.07
2023-05-14T14:43:13.183Z,53.92
2023-05-14T14:45:42.843Z,53.98
2023-05-14T14:48:27.365Z,55.98
2023-05-14T14:50:56.387Z,53.52
2023-05-14T14:53:25.525Z,53.57
2023-05-14T14:55:55.003Z,54.53
2023-05-14T14:58:23.800Z,54.22
2023-05-14T15:00:54.485Z,54.74
2023-05-14T15:03:23.570Z,54.72
2023-05-14T15:05:54.083Z,55.29
2023-05-14T15:08:26.070Z,55.34
2023-05-14T15:10:54.744Z,55.43
2023-05-14T15:13:24.054Z,54.69
2023-05-14T15:15:52.970Z,54.59
2023-05-14T15:18:21.737Z,54.32
2023-05-14T15:20:50.674Z,55.20
2023-05-14T15:23:20.632Z,55.97
2023-05-14T15:25:49.911Z,55.46
2023-05-14T15:28:18.580Z,56.00
2023-05-14T15:30:48.410Z,56.61
2023-05-14T15:33:19.105Z,55.70
2023-05-14T15:35:47.842Z,55.70
2023-05-14T15:38:16.502Z,55.88
2023-05-14T15:40:46.472Z,55.32
2023-05-14T15:43:15.177Z,55.17
2023-05-14T15:45:45.747Z,55.35
2023-05-14T15:48:14.400Z,56.92
2023-05-14T15:50:43.490Z,56.17
2023-05-14T15:53:12.175Z,56.56
2023-05-14T15:55:41.027Z,56.33
2023-05-14T15:58:12.697Z,56.53
2023-05-14T16:00:41.442Z,56.80
2023-05-14T16:03:10.186Z,56.98
2023-05-14T16:05:38.948Z,56.77
2023-05-14T16:08:07.828Z,57.78
2023-05-14T16:10:36.551Z,57.83
2023-05-14T16:13:05.253Z,57.08
2023-05-14T16:15:35.302Z,56.74
2023-05-14T16:18:04.161Z,55.80
2023-05-14T16:20:32.851Z,57.12
2023-05-14T16:23:01.422Z,55.92
2023-05-14T16:25:30.967Z,56.48
2023-05-14T16:27:59.659Z,55.63
2023-05-14T16:30:28.277Z,55.25
2023-05-14T16:32:58.294Z,57.03
2023-05-14T16:35:26.963Z,56.59
2023-05-14T16:37:55.572Z,56.11
2023-05-14T16:40:24.561Z,56.22
2023-05-14T16:42:53.419Z,55.64
2023-05-14T16:45:22.223Z,55.29
2023-05-14T16:47:50.991Z,53.56
2023-05-14T16:50:21.262Z,53.48
2023-05-14T16:52:49.934Z,54.18
2023-05-14T16:55:19.489Z,54.91
2023-05-14T16:57:48.122Z,53.92
2023-05-14T17:00:17.879Z,53.55
2023-05-14T17:02:49.062Z,54.39
2023-05-14T17:05:17.756Z,54.33
2023-05-14T17:07:47.791Z,54.51
2023-05-14T17:10:16.439Z,54.97
2023-05-14T17:12:45.166Z,54.93
2023-05-14T17:15:13.814Z,56.31
2023-05-14T17:17:42.468Z,54.48
2023-05-14T17:20:12.471Z,52.79
2023-05-14T17:22:42.084Z,55.80
2023-05-14T17:25:12.253Z,53.48
2023-05-14T17:27:40.917Z,52.85
2023-05-14T17:30:10.506Z,53.13
2023-05-14T17:32:39.246Z,52.88
2023-05-14T17:35:09.629Z,54.08
2023-05-14T17:37:38.559Z,53.47
2023-05-14T17:40:08.293Z,53.02
2023-05-14T17:42:38.345Z,54.57
2023-05-14T17:45:08.362Z,55.99
2023-05-14T17:47:37.498Z,56.23
2023-05-14T17:50:07.176Z,57.46
2023-05-14T17:52:35.987Z,57.26
2023-05-14T17:55:05.314Z,54.90
2023-05-14T17:57:33.975Z,54.08
2023-05-14T18:00:04.769Z,53.08
2023-05-14T18:02:33.409Z,52.69
2023-05-14T18:05:02.698Z,54.87
2023-05-14T18:07:31.594Z,54.47
2023-05-14T18:10:00.233Z,56.99
2023-05-14T18:12:29.229Z,55.62
2023-05-14T18:14:57.966Z,57.44
2023-05-14T18:17:28.009Z,58.02
2023-05-14T18:19:56.628Z,59.23
2023-05-14T18:22:25.271Z,61.28
2023-05-14T18:24:53.968Z,62.67
2023-05-14T18:27:22.600Z,63.29
2023-05-14T18:29:51.891Z,62.52
2023-05-14T18:32:21.069Z,63.18
2023-05-14T18:34:51.069Z,63.77
2023-05-14T18:37:19.727Z,64.28
2023-05-14T18:39:48.344Z,64.21
2023-05-14T18:42:18.716Z,63.98
2023-05-14T18:44:47.414Z,64.17
2023-05-14T18:47:16.115Z,64.28
2023-05-14T18:49:44.769Z,65.83
2023-05-14T18:52:14.742Z,64.97
2023-05-14T18:54:43.470Z,66.71
2023-05-14T18:57:13.512Z,66.23
2023-05-14T18:59:42.194Z,66.24
2023-05-14T19:02:10.857Z,68.15
2023-05-14T19:04:51.270Z,68.05
2023-05-14T19:07:22.715Z,67.37
2023-05-14T19:09:51.297Z,67.61
2023-05-14T19:12:19.924Z,68.27
2023-05-14T19:14:48.545Z,68.08
2023-05-14T19:17:18.547Z,68.84
2023-05-14T19:19:49.127Z,69.70
2023-05-14T19:22:18.673Z,70.70
2023-05-14T19:27:18.234Z,72.04
2023-05-14T19:29:47.049Z,73.34
2023-05-14T19:32:15.709Z,73.12
2023-05-14T19:34:44.303Z,72.49
2023-05-14T19:37:13.030Z,72.61
2023-05-14T19:39:41.684Z,73.30
2023-05-14T19:42:11.704Z,74.64
2023-05-14T19:44:40.344Z,74.10
2023-05-14T19:47:09.138Z,72.91
2023-05-14T19:49:37.954Z,73.01
2023-05-14T19:52:07.328Z,73.65
2023-05-14T19:54:35.968Z,74.33
2023-05-14T19:57:04.908Z,74.46
2023-05-14T19:59:34.904Z,74.64
2023-05-14T20:02:04.686Z,74.68
2023-05-14T20:04:33.540Z,74.79
2023-05-14T20:07:02.233Z,74.10
2023-05-14T20:09:31.635Z,74.59
2023-05-14T20:12:00.412Z,75.61
2023-05-14T20:14:29.115Z,76.28
2023-05-14T20:16:59.954Z,76.90
2023-05-14T20:19:28.675Z,76.79
2023-05-14T20:21:57.301Z,77.92
2023-05-14T20:24:25.953Z,78.56
2023-05-14T20:26:54.590Z,77.69
2023-05-14T20:29:23.195Z,77.44
2023-05-14T20:31:52.231Z,78.66
2023-05-14T20:34:22.286Z,79.47
2023-05-14T20:36:50.982Z,79.15
2023-05-14T20:39:19.643Z,79.10
2023-05-14T20:41:48.291Z,79.11
2023-05-14T20:44:18.380Z,79.13
2023-05-14T20:46:48.875Z,80.14
2023-05-14T20:49:17.586Z,80.59
2023-05-14T20:51:47.568Z,81.10
2023-05-14T20:54:16.396Z,80.93
2023-05-14T20:56:45.022Z,81.62
2023-05-14T20:59:13.645Z,82.33
2023-05-14T21:01:42.667Z,80.93
2023-05-14T21:04:11.529Z,81.04
2023-05-14T21:06:40.333Z,81.11
2023-05-14T21:09:10.724Z,82.92
2023-05-14T21:11:39.421Z,83.45
2023-05-14T21:14:08.125Z,82.11
2023-05-14T21:16:36.861Z,82.08
2023-05-14T21:19:05.586Z,81.82
2023-05-14T21:21:34.292Z,81.84
2023-05-14T21:24:02.952Z,81.67
2023-05-14T21:26:33.401Z,80.93
2023-05-14T21:29:02.046Z,81.80
2023-05-14T21:31:30.778Z,82.00
2023-05-14T21:33:59.438Z,81.91
2023-05-14T21:36:29.112Z,81.84
2023-05-14T21:38:57.732Z,83.41
2023-05-14T21:41:26.503Z,82.87
2023-05-14T21:43:56.514Z,82.48
2023-05-14T21:46:25.660Z,82.51
2023-05-14T21:48:54.444Z,82.82
2023-05-14T21:51:23.410Z,83.31
2023-05-14T21:53:52.079Z,83.61
2023-05-14T21:56:21.067Z,83.83
2023-05-14T21:58:49.706Z,83.81
2023-05-14T22:01:19.666Z,84.36
2023-05-14T22:03:48.321Z,84.42
2023-05-14T22:06:16.924Z,84.83
2023-05-14T22:08:45.576Z,84.84
2023-05-14T22:11:14.209Z,85.97
2023-05-14T22:13:42.862Z,86.32
2023-05-14T22:16:14.081Z,86.45
2023-05-14T22:18:44.389Z,87.47
2023-05-14T22:21:13.060Z,88.08
2023-05-14T22:23:41.672Z,88.25
2023-05-14T22:26:10.346Z,88.15
2023-05-14T22:28:42.874Z,88.63
2023-05-14T22:31:11.599Z,89.62
2023-05-14T22:33:40.260Z,89.68
2023-05-14T22:36:10.995Z,89.09
2023-05-14T22:38:41.153Z,89.04
2023-05-14T22:41:10.436Z,89.69
2023-05-14T22:43:39.034Z,89.90
2023-05-14T22:46:07.772Z,90.28
2023-05-14T22:48:36.466Z,90.53
2023-05-14T22:51:05.255Z,90.75
2023-05-14T22:53:35.342Z,90.29
2023-05-14T22:56:04.209Z,90.38
2023-05-14T22:58:32.785Z,90.49
2023-05-14T23:01:01.390Z,90.02
2023-05-14T23:03:30.243Z,90.29
2023-05-14T23:05:58.835Z,90.67
2023-05-14T23:08:27.569Z,90.75
2023-05-14T23:10:57.565Z,90.62
2023-05-14T23:13:26.265Z,90.99
2023-05-14T23:15:54.867Z,90.86
2023-05-14T23:18:24.119Z,91.29
2023-05-14T23:20:52.780Z,91.73
2023-05-14T23:23:21.348Z,92.98
2023-05-14T23:25:50.629Z,93.08
2023-05-14T23:28:20.678Z,93.49
2023-05-14T23:30:49.325Z,93.55
2023-05-14T23:33:17.944Z,93.29
2023-05-14T23:35:46.601Z,93.71
2023-05-14T23:38:15.393Z,93.40
2023-05-14T23:40:43.978Z,92.53
2023-05-14T23:43:12.674Z,92.41
2023-05-14T23:45:42.820Z,93.56
2023-05-14T23:48:11.531Z,93.48
2023-05-14T23:50:40.072Z,93.90
2023-05-14T23:53:08.905Z,94.20
2023-05-14T23:55:37.587Z,95.48
2023-05-14T23:58:06.245Z,96.46
